createdAt,value
2023-02-27T00:00:57.563Z,94771.09
2023-02-27T00:01:59.509Z,94743.06
2023-02-27T00:03:01.388Z,94765.22
2023-02-27T00:04:03.497Z,94776.56
2023-02-27T00:05:06.265Z,94773.63
2023-02-27T00:06:08.260Z,94756.16
2023-02-27T00:07:10.331Z,94755.25
2023-02-27T00:08:12.569Z,94777.34
2023-02-27T00:09:14.446Z,94780.81
2023-02-27T00:10:16.786Z,94681.53
2023-02-27T00:11:18.541Z,94765.03
2023-02-27T00:12:20.391Z,94778.59
2023-02-27T00:13:22.361Z,94733.28
2023-02-27T00:14:24.588Z,94785.13
2023-02-27T00:15:26.669Z,94706.16
2023-02-27T00:16:28.543Z,94734.19
2023-02-27T00:17:30.790Z,94753.66
2023-02-27T00:18:32.787Z,94802.72
2023-02-27T00:19:34.624Z,94703.84
2023-02-27T00:20:36.466Z,94763.28
2023-02-27T00:21:38.246Z,94788.00
2023-02-27T00:22:41.526Z,94759.94
2023-02-27T00:23:43.346Z,94731.59
2023-02-27T00:24:45.326Z,94793.41
2023-02-27T00:25:47.097Z,94769.69
2023-02-27T00:26:49.059Z,94772.00
2023-02-27T00:27:51.124Z,94771.50
2023-02-27T00:28:52.942Z,94745.72
2023-02-27T00:29:55.045Z,94597.44
2023-02-27T00:30:57.580Z,94342.09
2023-02-27T00:32:00.911Z,94570.63
2023-02-27T00:38:14.064Z,94779.59
2023-02-27T00:39:16.042Z,94757.47
2023-02-27T00:40:18.483Z,94771.03
2023-02-27T00:41:20.280Z,94759.09
2023-02-27T00:42:22.482Z,94759.81
2023-02-27T00:43:24.998Z,94765.16
2023-02-27T00:44:27.239Z,94767.69
2023-02-27T00:45:29.502Z,94778.13
2023-02-27T00:46:31.441Z,94780.19
2023-02-27T00:47:34.477Z,94776.88
2023-02-27T00:48:36.435Z,94734.06
2023-02-27T00:49:38.240Z,94714.91
2023-02-27T00:50:40.211Z,94743.19
2023-02-27T00:51:42.172Z,94789.44
2023-02-27T00:52:44.256Z,94765.47
2023-02-27T00:53:46.707Z,94757.31
2023-02-27T00:54:48.904Z,94780.69
2023-02-27T00:55:50.911Z,94771.75
2023-02-27T00:56:52.661Z,94781.81
2023-02-27T00:57:54.490Z,94783.09
2023-02-27T00:58:56.287Z,94795.81
2023-02-27T00:59:58.222Z,94796.88
2023-02-27T01:01:00.572Z,94632.22
2023-02-27T01:02:02.440Z,94787.94
2023-02-27T01:03:04.642Z,94756.63
2023-02-27T01:04:06.769Z,94659.47
2023-02-27T01:05:09.397Z,94787.22
2023-02-27T01:06:11.354Z,94766.59
2023-02-27T01:07:13.166Z,94786.25
2023-02-27T01:08:14.958Z,94793.38
2023-02-27T01:09:16.762Z,94724.03
2023-02-27T01:10:18.561Z,94770.72
2023-02-27T01:11:20.374Z,94808.13
2023-02-27T01:12:22.149Z,94765.63
2023-02-27T01:13:24.509Z,94767.22
2023-02-27T01:14:26.690Z,94705.28
2023-02-27T01:15:28.828Z,94770.56
2023-02-27T01:16:30.950Z,94764.16
2023-02-27T01:17:33.328Z,94778.69
2023-02-27T01:18:35.098Z,94770.53
2023-02-27T01:19:36.951Z,94772.31
2023-02-27T01:20:38.898Z,94785.06
2023-02-27T01:21:40.882Z,94781.78
2023-02-27T01:22:42.721Z,94765.94
2023-02-27T01:23:44.769Z,94790.94
2023-02-27T01:24:46.574Z,94749.25
2023-02-27T01:25:49.101Z,94763.63
2023-02-27T01:26:51.122Z,94752.59
2023-02-27T01:27:53.101Z,94785.44
2023-02-27T01:28:55.041Z,94657.41
2023-02-27T01:29:56.858Z,94792.50
2023-02-27T01:30:58.634Z,94773.63
2023-02-27T01:32:00.768Z,94790.66
2023-02-27T01:33:02.749Z,94794.22
2023-02-27T01:34:04.800Z,94757.38
2023-02-27T01:35:07.388Z,94782.88
2023-02-27T01:36:09.968Z,94795.59
2023-02-27T01:37:11.841Z,94785.22
2023-02-27T01:38:13.641Z,94676.06
2023-02-27T01:39:15.467Z,94656.13
2023-02-27T01:40:17.471Z,94796.69
2023-02-27T01:41:19.451Z,94806.34
2023-02-27T01:42:26.888Z,94792.81
2023-02-27T01:43:29.252Z,94807.91
2023-02-27T01:44:31.904Z,94825.72
2023-02-27T01:45:36.159Z,94819.88
2023-02-27T01:46:38.469Z,94798.72
2023-02-27T01:47:44.887Z,94710.66
2023-02-27T01:48:46.941Z,94823.16
2023-02-27T01:49:49.008Z,94804.22
2023-02-27T01:51:02.321Z,94823.56
2023-02-27T01:52:08.826Z,94830.44
2023-02-27T01:53:11.048Z,94826.91
2023-02-27T01:54:17.743Z,94782.78
2023-02-27T01:55:20.629Z,94764.94
2023-02-27T01:56:25.791Z,94814.91
2023-02-27T01:57:27.813Z,94825.19
2023-02-27T01:58:30.169Z,94811.19
2023-02-27T01:59:34.063Z,94670.16
2023-02-27T02:00:36.200Z,94821.88
2023-02-27T02:01:38.522Z,94736.41
2023-02-27T02:02:47.867Z,94839.94
2023-02-27T02:03:55.408Z,94826.69
2023-02-27T02:04:57.761Z,94692.19
2023-02-27T02:06:01.891Z,94726.91
2023-02-27T02:07:07.731Z,94684.84
2023-02-27T02:08:11.229Z,94859.78
2023-02-27T02:09:15.512Z,94660.78
2023-02-27T02:10:19.815Z,94887.19
2023-02-27T02:11:24.066Z,94914.03
2023-02-27T02:12:35.181Z,94910.72
2023-02-27T02:13:39.513Z,94936.63
2023-02-27T02:14:41.243Z,94949.84
2023-02-27T02:15:51.366Z,94957.22
2023-02-27T02:18:44.978Z,94536.97
2023-02-27T02:20:28.045Z,94780.84
2023-02-27T02:38:07.185Z,95083.00
2023-02-27T02:39:38.437Z,94844.81
2023-02-27T02:40:55.137Z,94731.47
2023-02-27T02:42:03.421Z,94809.03
2023-02-27T02:43:28.634Z,95098.13
2023-02-27T02:44:57.577Z,95088.41
2023-02-27T02:46:13.480Z,94722.28
2023-02-27T02:47:40.030Z,94695.63
2023-02-27T02:48:49.959Z,95068.84
2023-02-27T02:50:28.072Z,94987.59
2023-02-27T02:51:46.694Z,95133.38
2023-02-27T02:53:03.637Z,94588.97
2023-02-27T02:54:13.303Z,95059.56
2023-02-27T02:55:29.786Z,95051.53
2023-02-27T02:57:06.238Z,94780.38
2023-02-27T02:58:25.448Z,94885.69
2023-02-27T02:59:38.412Z,94681.47
2023-02-27T03:00:51.214Z,94672.44
2023-02-27T03:02:04.273Z,94816.78
2023-02-27T03:03:15.387Z,94713.78
2023-02-27T03:04:28.674Z,94892.56
2023-02-27T03:05:40.213Z,95119.22
2023-02-27T03:06:48.859Z,94833.97
2023-02-27T03:07:57.223Z,94961.91
2023-02-27T03:09:20.016Z,94816.31
2023-02-27T03:10:29.206Z,94807.69
2023-02-27T03:34:38.311Z,95158.28
2023-02-27T03:36:01.241Z,95172.88
2023-02-27T03:37:13.669Z,94774.34
2023-02-27T03:38:26.555Z,94765.59
2023-02-27T03:39:45.419Z,95018.63
2023-02-27T03:43:07.512Z,94798.84
2023-02-27T03:44:12.192Z,95193.78
2023-02-27T03:46:27.498Z,94971.16
2023-02-27T03:47:31.242Z,94957.44
2023-02-27T03:48:37.539Z,94913.03
2023-02-27T03:49:39.701Z,94835.31
2023-02-27T03:50:44.469Z,94919.34
2023-02-27T03:51:47.277Z,94919.97
2023-02-27T03:52:52.384Z,95090.38
2023-02-27T03:54:10.211Z,95213.69
2023-02-27T03:55:21.359Z,95218.63
2023-02-27T03:56:33.273Z,94853.41
2023-02-27T03:57:37.807Z,94913.50
2023-02-27T03:58:40.557Z,95197.78
2023-02-27T03:59:43.704Z,94914.50
2023-02-27T04:00:48.757Z,95190.13
2023-02-27T04:01:54.488Z,94753.25
2023-02-27T04:03:00.065Z,94974.88
2023-02-27T04:04:11.975Z,94932.22
2023-02-27T04:05:17.246Z,95031.66
2023-02-27T04:06:22.645Z,95229.66
2023-02-27T04:07:32.232Z,95312.84
2023-02-27T04:09:08.280Z,95266.84
2023-02-27T04:10:48.800Z,95236.91
2023-02-27T04:12:07.173Z,95238.75
2023-02-27T04:13:48.054Z,94747.81
2023-02-27T04:15:17.006Z,94867.06
2023-02-27T04:17:01.031Z,95247.69
2023-02-27T04:18:07.178Z,95245.69
2023-02-27T04:19:23.465Z,94944.41
2023-02-27T04:20:42.516Z,94855.19
2023-02-27T04:22:05.982Z,95261.47
2023-02-27T04:23:24.227Z,94894.63
2023-02-27T04:24:49.792Z,95249.09
2023-02-27T04:26:15.138Z,94700.44
2023-02-27T04:27:29.971Z,95266.19
2023-02-27T04:28:44.750Z,95275.13
2023-02-27T04:30:14.344Z,95249.03
2023-02-27T04:31:24.718Z,95283.63
2023-02-27T04:32:49.689Z,95285.19
2023-02-27T04:34:03.389Z,94969.31
2023-02-27T04:35:32.736Z,94873.06
2023-02-27T04:36:44.876Z,95276.22
2023-02-27T04:38:00.964Z,95004.94
2023-02-27T04:39:07.838Z,95060.09
2023-02-27T04:40:19.554Z,95088.94
2023-02-27T04:41:34.164Z,94981.66
2023-02-27T04:42:42.645Z,95009.56
2023-02-27T04:43:46.633Z,95316.38
2023-02-27T04:44:51.326Z,95026.66
2023-02-27T04:45:55.170Z,94872.94
2023-02-27T04:47:00.955Z,94822.16
2023-02-27T04:48:13.869Z,94928.03
2023-02-27T04:49:28.506Z,95333.22
2023-02-27T04:50:38.593Z,95337.50
2023-02-27T04:51:50.449Z,95142.38
2023-02-27T04:53:11.764Z,94808.50
2023-02-27T04:54:22.890Z,94947.22
2023-02-27T04:55:30.567Z,95341.63
2023-02-27T04:56:39.015Z,94844.69
2023-02-27T04:57:52.034Z,95262.63
2023-02-27T04:59:02.341Z,94917.59
2023-02-27T05:00:08.177Z,95020.69
2023-02-27T05:01:17.073Z,94985.06
2023-02-27T05:02:32.327Z,95106.66
2023-02-27T05:03:39.607Z,95066.84
2023-02-27T05:04:45.273Z,94926.81
2023-02-27T05:05:49.099Z,95143.94
2023-02-27T05:06:54.467Z,95350.88
2023-02-27T05:08:21.740Z,95134.00
2023-02-27T05:09:46.179Z,95418.72
2023-02-27T05:11:05.633Z,95114.94
2023-02-27T05:12:30.651Z,94926.44
2023-02-27T05:13:48.227Z,95128.28
2023-02-27T05:15:00.541Z,94889.81
2023-02-27T05:16:13.164Z,95077.69
2023-02-27T05:17:40.109Z,95066.22
2023-02-27T05:18:42.128Z,95152.34
2023-02-27T05:19:44.903Z,94911.41
2023-02-27T05:21:12.140Z,95356.69
2023-02-27T05:22:24.721Z,95273.25
2023-02-27T05:23:44.026Z,95401.47
2023-02-27T05:24:56.198Z,95401.94
2023-02-27T05:26:22.772Z,95194.03
2023-02-27T05:27:53.966Z,95404.06
2023-02-27T05:29:06.600Z,95391.97
2023-02-27T05:30:34.375Z,95406.84
2023-02-27T05:31:42.088Z,95412.25
2023-02-27T05:33:09.448Z,95423.41
2023-02-27T05:34:45.036Z,95413.06
2023-02-27T05:36:05.852Z,95419.22
2023-02-27T05:37:33.210Z,95385.25
2023-02-27T05:38:41.583Z,95414.06
2023-02-27T05:39:45.949Z,95401.44
2023-02-27T05:40:52.896Z,95394.16
2023-02-27T05:42:00.648Z,95417.22
2023-02-27T05:43:15.248Z,95403.38
2023-02-27T05:44:33.599Z,95415.56
2023-02-27T05:45:39.126Z,95408.22
2023-02-27T05:46:46.351Z,95424.28
2023-02-27T05:48:02.640Z,95424.78
2023-02-27T05:49:12.231Z,95393.84
2023-02-27T05:50:19.899Z,95392.28
2023-02-27T05:51:25.624Z,95412.78
2023-02-27T05:52:31.242Z,95432.31
2023-02-27T05:53:39.489Z,95437.53
2023-02-27T05:54:53.794Z,95428.97
2023-02-27T05:56:00.561Z,95437.66
2023-02-27T05:57:05.100Z,95404.72
2023-02-27T05:58:36.956Z,95414.09
2023-02-27T06:00:06.957Z,95432.09
2023-02-27T06:01:11.567Z,95363.13
2023-02-27T06:02:13.788Z,95406.03
2023-02-27T06:03:15.940Z,95429.53
2023-02-27T06:04:18.078Z,95417.19
2023-02-27T06:05:20.494Z,95404.66
2023-02-27T06:06:23.107Z,95427.63
2023-02-27T06:07:25.139Z,95427.47
2023-02-27T06:08:29.526Z,95435.88
2023-02-27T06:09:34.082Z,95416.41
2023-02-27T06:10:36.485Z,95279.06
2023-02-27T06:11:38.633Z,95299.44
2023-02-27T06:12:40.949Z,95405.03
2023-02-27T06:13:42.718Z,95448.78
2023-02-27T06:14:44.960Z,95440.19
2023-02-27T06:15:46.780Z,95450.38
2023-02-27T06:16:48.807Z,95453.81
2023-02-27T06:17:51.233Z,95455.13
2023-02-27T06:18:53.572Z,95452.22
2023-02-27T06:19:55.297Z,95427.38
2023-02-27T06:20:57.214Z,95433.75
2023-02-27T06:21:58.947Z,95446.91
2023-02-27T06:23:00.666Z,95443.69
2023-02-27T06:24:02.852Z,95439.69
2023-02-27T06:25:05.168Z,95448.78
2023-02-27T06:26:07.061Z,95435.41
2023-02-27T06:27:08.995Z,95450.41
2023-02-27T06:28:11.633Z,95456.34
2023-02-27T06:29:14.004Z,95455.75
2023-02-27T06:30:16.098Z,95437.13
2023-02-27T06:31:17.927Z,95450.88
2023-02-27T06:32:20.866Z,95460.63
2023-02-27T06:33:26.104Z,95416.44
2023-02-27T06:34:28.249Z,95441.25
2023-02-27T06:35:30.301Z,95451.91
2023-02-27T06:36:32.182Z,95435.97
2023-02-27T06:37:34.302Z,95448.66
2023-02-27T06:38:36.343Z,95452.81
2023-02-27T06:39:38.218Z,95462.50
2023-02-27T06:40:39.946Z,95448.38
2023-02-27T06:41:42.078Z,95459.91
2023-02-27T06:42:45.404Z,95254.94
2023-02-27T06:43:47.361Z,95169.78
2023-02-27T06:44:49.434Z,95455.84
2023-02-27T06:45:54.580Z,95415.66
2023-02-27T06:46:56.582Z,95447.72
2023-02-27T06:47:58.522Z,95427.41
2023-02-27T06:49:00.512Z,95378.16
2023-02-27T06:50:02.433Z,95460.16
2023-02-27T06:51:04.342Z,95470.25
2023-02-27T06:52:06.175Z,95361.38
2023-02-27T06:53:08.378Z,95475.94
2023-02-27T06:54:10.716Z,95459.91
2023-02-27T06:55:13.066Z,95460.56
2023-02-27T06:56:15.603Z,95466.38
2023-02-27T06:57:17.527Z,95249.22
2023-02-27T06:58:19.489Z,95441.59
2023-02-27T06:59:21.517Z,95466.19
2023-02-27T07:00:23.766Z,95457.06
2023-02-27T07:01:25.836Z,95451.25
2023-02-27T07:02:28.078Z,95459.31
2023-02-27T07:03:29.986Z,95377.66
2023-02-27T07:04:31.853Z,95459.44
2023-02-27T07:05:33.712Z,95443.44
2023-02-27T07:07:34.540Z,95450.13
2023-02-27T07:07:58.663Z,95422.47
2023-02-27T07:09:03.260Z,95473.69
2023-02-27T07:10:12.762Z,95408.84
2023-02-27T07:11:14.816Z,95474.13
2023-02-27T07:12:16.655Z,95483.72
2023-02-27T07:13:19.764Z,95484.50
2023-02-27T07:14:21.975Z,95463.34
2023-02-27T07:15:23.948Z,95484.81
2023-02-27T07:16:26.242Z,95487.97
2023-02-27T07:17:28.422Z,95476.00
2023-02-27T07:18:30.485Z,95476.59
2023-02-27T07:19:33.359Z,95500.44
2023-02-27T07:20:35.365Z,95494.56
2023-02-27T07:21:37.390Z,95479.28
2023-02-27T07:22:40.688Z,95463.81
2023-02-27T07:23:43.656Z,95485.66
2023-02-27T07:24:45.523Z,95469.25
2023-02-27T07:25:48.750Z,95501.72
2023-02-27T07:26:51.041Z,95490.28
2023-02-27T07:27:53.066Z,95507.91
2023-02-27T07:28:55.088Z,95503.88
2023-02-27T07:29:57.158Z,95491.06
2023-02-27T07:30:59.097Z,95503.56
2023-02-27T07:32:01.316Z,95490.56
2023-02-27T07:33:03.400Z,95486.50
2023-02-27T07:34:05.276Z,95502.22
2023-02-27T07:35:08.437Z,95492.66
2023-02-27T07:36:11.036Z,95504.97
2023-02-27T07:37:13.912Z,95516.13
2023-02-27T07:38:16.006Z,95512.72
2023-02-27T07:39:18.010Z,95488.50
2023-02-27T07:40:20.140Z,95523.41
2023-02-27T07:41:30.369Z,95528.84
2023-02-27T07:42:32.847Z,95526.06
2023-02-27T07:43:34.627Z,95506.56
2023-02-27T07:44:36.838Z,95332.38
2023-02-27T07:45:38.854Z,95476.88
2023-02-27T07:46:41.277Z,95534.03
2023-02-27T07:47:43.033Z,95452.22
2023-02-27T07:48:44.860Z,95526.78
2023-02-27T07:49:46.965Z,95524.94
2023-02-27T07:50:49.276Z,95531.41
2023-02-27T07:53:01.856Z,95532.09
2023-02-27T07:54:04.296Z,95066.94
2023-02-27T07:55:07.183Z,95156.97
2023-02-27T07:56:09.850Z,95268.84
2023-02-27T07:57:14.985Z,95073.94
2023-02-27T07:58:17.072Z,95497.69
2023-02-27T07:59:18.932Z,95534.38
2023-02-27T08:00:20.958Z,95538.25
2023-02-27T08:01:22.958Z,95544.00
2023-02-27T08:02:24.955Z,95538.09
2023-02-27T08:03:27.022Z,95524.94
2023-02-27T08:04:32.820Z,95400.59
2023-02-27T08:05:42.634Z,95144.72
2023-02-27T08:06:44.842Z,95171.91
2023-02-27T08:07:48.737Z,95381.69
2023-02-27T08:08:51.911Z,95095.56
2023-02-27T08:09:54.158Z,95273.69
2023-02-27T08:10:57.168Z,95098.09
2023-02-27T08:13:55.709Z,95367.84
2023-02-27T08:14:47.595Z,95612.72
2023-02-27T08:15:50.535Z,95225.28
2023-02-27T08:16:54.408Z,95280.38
2023-02-27T08:17:56.999Z,95327.56
2023-02-27T08:19:01.429Z,95086.84
2023-02-27T08:20:05.876Z,95121.03
2023-02-27T08:21:09.080Z,95390.72
2023-02-27T08:22:12.338Z,95250.66
2023-02-27T08:23:14.761Z,95280.56
2023-02-27T08:24:17.304Z,95184.53
2023-02-27T08:25:19.623Z,95093.06
2023-02-27T08:26:21.685Z,95072.72
2023-02-27T08:27:23.961Z,95240.28
2023-02-27T08:28:27.792Z,95115.91
2023-02-27T08:29:36.235Z,95385.88
2023-02-27T08:30:38.799Z,95065.03
2023-02-27T08:31:41.709Z,95271.72
2023-02-27T08:32:44.499Z,95255.47
2023-02-27T08:33:46.701Z,95208.19
2023-02-27T08:34:55.376Z,95238.25
2023-02-27T08:35:57.649Z,95235.56
2023-02-27T08:36:59.997Z,95314.00
2023-02-27T08:38:02.428Z,95549.69
2023-02-27T08:39:05.079Z,95537.81
2023-02-27T08:40:08.494Z,95547.41
2023-02-27T08:41:11.162Z,95541.41
2023-02-27T08:42:13.504Z,95548.16
2023-02-27T08:43:15.290Z,95545.94
2023-02-27T08:44:17.037Z,95512.38
2023-02-27T08:45:19.038Z,95543.78
2023-02-27T08:46:21.339Z,95271.69
2023-02-27T08:47:23.349Z,95497.38
2023-02-27T08:48:25.354Z,95535.19
2023-02-27T08:49:27.368Z,95502.56
2023-02-27T08:50:29.108Z,95538.84
2023-02-27T08:51:31.121Z,95543.47
2023-02-27T08:52:33.381Z,95532.00
2023-02-27T08:53:35.393Z,95495.69
2023-02-27T08:54:37.897Z,95527.38
2023-02-27T08:55:39.644Z,95408.91
2023-02-27T08:56:41.312Z,95530.88
2023-02-27T08:57:43.052Z,95424.75
2023-02-27T08:58:44.689Z,95488.13
2023-02-27T08:59:46.492Z,95434.47
2023-02-27T09:00:48.280Z,95495.75
2023-02-27T09:01:50.104Z,95535.72
2023-02-27T09:02:52.369Z,95527.47
2023-02-27T09:03:54.633Z,95529.66
2023-02-27T09:04:56.594Z,95504.66
2023-02-27T09:05:58.928Z,95529.56
2023-02-27T09:07:00.676Z,95539.47
2023-02-27T09:08:03.293Z,95510.56
2023-02-27T09:09:05.459Z,95537.91
2023-02-27T09:10:07.650Z,95529.78
2023-02-27T09:11:09.467Z,95553.59
2023-02-27T09:12:11.873Z,95545.47
2023-02-27T09:13:13.731Z,95453.78
2023-02-27T09:14:15.584Z,95525.53
2023-02-27T09:15:17.810Z,95336.03
2023-02-27T09:16:21.408Z,95204.56
2023-02-27T09:17:23.317Z,95558.94
2023-02-27T09:18:25.132Z,95562.41
2023-02-27T09:19:26.909Z,95565.69
2023-02-27T09:20:29.912Z,95552.44
2023-02-27T09:21:31.652Z,95546.84
2023-02-27T09:22:33.778Z,95548.22
2023-02-27T09:23:35.974Z,95567.72
2023-02-27T09:24:37.769Z,95569.69
2023-02-27T09:25:39.480Z,95583.44
2023-02-27T09:26:46.141Z,95542.00
2023-02-27T09:27:48.300Z,95584.78
2023-02-27T09:28:50.296Z,95569.56
2023-02-27T09:29:52.116Z,95557.03
2023-02-27T09:30:54.059Z,95580.25
2023-02-27T09:31:56.021Z,95589.13
2023-02-27T09:32:58.246Z,95598.41
2023-02-27T09:34:00.240Z,95587.06
2023-02-27T09:35:01.938Z,95578.75
2023-02-27T09:36:05.520Z,95582.78
2023-02-27T09:37:07.189Z,95576.53
2023-02-27T09:38:08.878Z,95585.09
2023-02-27T09:39:10.638Z,95594.97
2023-02-27T09:40:28.407Z,95590.69
2023-02-27T09:41:51.304Z,95583.00
2023-02-27T09:42:57.639Z,95546.97
2023-02-27T09:43:59.899Z,95589.34
2023-02-27T09:45:05.948Z,95618.44
2023-02-27T09:46:10.639Z,95590.25
2023-02-27T09:47:27.703Z,95591.75
2023-02-27T09:48:36.992Z,95597.28
2023-02-27T09:49:55.626Z,95591.69
2023-02-27T09:50:58.154Z,95582.84
2023-02-27T09:52:00.738Z,95587.09
2023-02-27T09:53:02.874Z,95589.97
2023-02-27T09:54:05.130Z,95585.09
2023-02-27T09:55:15.063Z,95554.03
2023-02-27T09:57:04.371Z,95608.06
2023-02-27T09:58:43.983Z,95584.19
2023-02-27T09:59:57.368Z,95594.28
2023-02-27T10:01:18.091Z,95494.41
2023-02-27T10:02:38.309Z,95589.66
2023-02-27T10:04:00.670Z,95460.56
2023-02-27T10:05:26.883Z,95604.13
2023-02-27T10:06:42.809Z,95602.69
2023-02-27T10:07:56.983Z,95600.66
2023-02-27T10:09:14.129Z,95583.00
2023-02-27T10:10:29.891Z,95599.34
2023-02-27T10:11:42.538Z,95587.63
2023-02-27T10:13:02.316Z,95474.59
2023-02-27T10:14:27.341Z,95629.09
2023-02-27T10:15:37.644Z,95508.78
2023-02-27T10:16:40.625Z,95606.78
2023-02-27T10:17:48.409Z,95605.41
2023-02-27T10:19:00.163Z,95622.09
2023-02-27T10:20:07.237Z,95611.28
2023-02-27T10:21:14.280Z,95618.88
2023-02-27T10:22:22.036Z,95443.56
2023-02-27T10:23:54.537Z,95618.31
2023-02-27T10:25:31.199Z,95623.94
2023-02-27T10:26:40.513Z,95610.66
2023-02-27T10:27:45.838Z,95625.97
2023-02-27T10:28:47.785Z,95592.50
2023-02-27T10:29:50.104Z,95615.44
2023-02-27T10:30:55.381Z,95482.78
2023-02-27T10:32:21.295Z,95599.31
2023-02-27T10:33:45.145Z,95601.38
2023-02-27T10:34:59.030Z,95603.94
2023-02-27T10:36:02.823Z,95588.63
2023-02-27T10:37:06.462Z,95609.91
2023-02-27T10:38:34.383Z,95617.81
2023-02-27T10:40:02.165Z,95611.19
2023-02-27T10:41:06.168Z,95629.69
2023-02-27T10:42:12.595Z,95581.25
2023-02-27T10:43:17.215Z,95616.09
2023-02-27T10:44:19.515Z,95594.56
2023-02-27T10:45:21.300Z,95598.09
2023-02-27T10:46:30.522Z,95546.66
2023-02-27T10:47:32.671Z,95581.59
2023-02-27T10:48:34.440Z,95593.22
2023-02-27T10:49:37.917Z,95610.88
2023-02-27T10:51:34.830Z,95532.38
2023-02-27T10:52:49.055Z,95543.94
2023-02-27T10:53:51.432Z,95617.31
2023-02-27T10:54:53.335Z,95598.94
2023-02-27T10:56:08.089Z,95571.72
2023-02-27T10:57:40.855Z,95564.81
2023-02-27T10:58:43.402Z,95586.03
2023-02-27T10:59:53.902Z,95501.00
2023-02-27T11:01:01.273Z,95460.47
2023-02-27T11:02:36.365Z,95604.84
2023-02-27T11:03:43.771Z,95600.44
2023-02-27T11:04:54.986Z,95566.25
2023-02-27T11:05:59.914Z,95584.41
2023-02-27T11:07:04.823Z,95466.06
2023-02-27T11:08:12.745Z,95604.28
2023-02-27T11:09:27.619Z,95590.69
2023-02-27T11:10:29.548Z,95572.06
2023-02-27T11:11:31.234Z,95583.31
2023-02-27T11:12:35.405Z,95590.59
2023-02-27T11:13:42.708Z,95524.44
2023-02-27T11:15:02.201Z,95557.00
2023-02-27T11:16:20.961Z,95579.63
2023-02-27T11:17:28.137Z,95575.06
2023-02-27T11:18:31.077Z,95578.66
2023-02-27T11:19:36.545Z,95581.81
2023-02-27T11:20:40.228Z,95241.19
2023-02-27T11:21:59.230Z,95572.28
2023-02-27T11:23:07.115Z,95604.81
2023-02-27T11:24:20.239Z,95571.47
2023-02-27T11:25:24.844Z,95574.94
2023-02-27T11:26:38.185Z,95573.31
2023-02-27T11:27:40.570Z,95563.38
2023-02-27T11:28:42.973Z,95561.53
2023-02-27T11:30:06.515Z,95406.22
2023-02-27T11:31:21.144Z,95468.09
2023-02-27T11:32:24.005Z,95557.06
2023-02-27T11:33:27.020Z,95434.03
2023-02-27T11:34:31.803Z,95555.97
2023-02-27T11:35:38.608Z,95579.34
2023-02-27T11:36:47.221Z,95502.41
2023-02-27T11:37:51.407Z,95557.22
2023-02-27T11:38:55.189Z,95533.66
2023-02-27T11:40:00.004Z,95556.56
2023-02-27T11:41:07.346Z,95558.28
2023-02-27T11:42:21.002Z,95562.00
2023-02-27T11:43:30.833Z,95521.06
2023-02-27T11:44:50.675Z,95564.38
2023-02-27T11:46:19.453Z,95571.16
2023-02-27T11:47:25.748Z,95449.06
2023-02-27T11:48:34.896Z,95558.59
2023-02-27T11:50:00.682Z,95552.78
2023-02-27T11:51:11.256Z,95415.47
2023-02-27T11:52:21.485Z,95563.47
2023-02-27T11:53:44.066Z,95561.66
2023-02-27T11:55:01.610Z,95560.94
2023-02-27T11:56:08.734Z,95567.91
2023-02-27T11:57:41.417Z,95572.22
2023-02-27T11:59:10.655Z,95567.66
2023-02-27T12:00:27.825Z,95562.38
2023-02-27T12:02:00.363Z,95538.28
2023-02-27T12:03:11.026Z,95419.63
2023-02-27T12:04:31.383Z,95538.38
2023-02-27T12:05:47.815Z,95552.94
2023-02-27T12:06:57.665Z,95553.44
2023-02-27T12:08:06.674Z,95439.16
2023-02-27T12:09:29.236Z,95458.91
2023-02-27T12:10:38.815Z,95583.75
2023-02-27T12:11:46.806Z,95547.59
2023-02-27T12:13:01.292Z,95430.59
2023-02-27T12:14:06.108Z,95568.63
2023-02-27T12:15:18.860Z,95595.84
2023-02-27T12:16:38.200Z,95545.09
2023-02-27T12:17:57.209Z,95516.00
2023-02-27T12:19:38.969Z,95585.03
2023-02-27T12:20:52.572Z,95563.56
2023-02-27T12:22:00.047Z,95545.94
2023-02-27T12:23:06.392Z,95560.38
2023-02-27T12:24:18.408Z,95543.47
2023-02-27T12:25:38.478Z,95558.22
2023-02-27T12:26:44.146Z,95575.88
2023-02-27T12:28:01.374Z,95387.56
2023-02-27T12:29:21.142Z,95591.22
2023-02-27T12:30:27.187Z,95532.53
2023-02-27T12:31:35.112Z,95449.28
2023-02-27T12:33:15.640Z,95548.13
2023-02-27T12:34:53.329Z,95518.19
2023-02-27T12:36:01.361Z,95554.06
2023-02-27T12:37:13.490Z,95560.66
2023-02-27T12:38:15.466Z,95554.16
2023-02-27T12:39:21.068Z,95559.91
2023-02-27T12:40:40.320Z,95551.19
2023-02-27T12:42:25.488Z,95541.25
2023-02-27T12:43:53.188Z,95524.59
2023-02-27T12:45:25.850Z,95557.53
2023-02-27T12:46:30.386Z,95574.69
2023-02-27T12:48:10.590Z,95565.94
2023-02-27T12:49:18.730Z,95557.47
2023-02-27T12:50:23.964Z,95449.75
2023-02-27T12:51:43.886Z,95425.25
2023-02-27T12:52:57.559Z,95554.84
2023-02-27T12:54:10.455Z,95553.56
2023-02-27T12:55:23.614Z,95344.00
2023-02-27T12:56:32.464Z,95531.81
2023-02-27T12:58:01.790Z,95571.75
2023-02-27T12:59:12.324Z,95569.16
2023-02-27T13:00:19.022Z,95563.69
2023-02-27T13:01:41.849Z,95542.78
2023-02-27T13:03:10.030Z,95538.09
2023-02-27T13:04:33.386Z,95557.47
2023-02-27T13:05:57.871Z,95555.13
2023-02-27T13:07:09.524Z,95560.03
2023-02-27T13:08:38.651Z,95566.66
2023-02-27T13:10:05.456Z,95527.50
2023-02-27T13:11:30.526Z,95609.63
2023-02-27T13:12:51.031Z,95574.13
2023-02-27T13:14:00.008Z,95559.31
2023-02-27T13:15:10.889Z,95602.06
2023-02-27T13:16:18.152Z,95567.41
2023-02-27T13:17:28.812Z,95562.84
2023-02-27T13:18:33.345Z,95602.50
2023-02-27T13:19:52.578Z,95574.47
2023-02-27T13:21:06.743Z,95403.59
2023-02-27T13:22:20.197Z,95567.97
2023-02-27T13:23:51.263Z,95611.22
2023-02-27T13:24:56.472Z,95566.59
2023-02-27T13:26:01.396Z,95547.63
2023-02-27T13:27:22.604Z,95582.34
2023-02-27T13:28:27.426Z,95577.72
2023-02-27T13:29:40.369Z,95580.88
2023-02-27T13:30:47.028Z,95561.06
2023-02-27T13:32:02.023Z,95571.38
2023-02-27T13:33:17.872Z,95547.59
2023-02-27T13:34:42.649Z,95572.06
2023-02-27T13:35:56.972Z,95580.31
2023-02-27T13:37:04.589Z,95566.38
2023-02-27T13:38:43.281Z,95532.75
2023-02-27T13:39:45.075Z,95578.16
2023-02-27T13:40:46.849Z,95475.41
2023-02-27T13:41:48.554Z,95529.97
2023-02-27T13:42:52.790Z,95528.75
2023-02-27T13:43:59.761Z,95549.84
2023-02-27T13:45:05.020Z,95470.78
2023-02-27T13:46:30.490Z,95544.28
2023-02-27T13:48:01.858Z,95548.41
2023-02-27T13:49:07.220Z,95576.00
2023-02-27T13:50:19.107Z,95567.63
2023-02-27T13:51:35.937Z,95567.16
2023-02-27T13:52:39.512Z,95579.59
2023-02-27T13:53:41.451Z,95551.34
2023-02-27T13:54:43.373Z,95563.09
2023-02-27T13:55:45.754Z,95592.03
2023-02-27T13:56:56.573Z,95589.13
2023-02-27T13:58:01.029Z,95588.47
2023-02-27T13:59:38.388Z,95600.47
2023-02-27T14:00:40.262Z,95589.06
2023-02-27T14:01:54.363Z,95618.16
2023-02-27T14:03:00.903Z,95551.91
2023-02-27T14:04:06.098Z,95588.91
2023-02-27T14:05:11.359Z,95571.75
2023-02-27T14:06:13.230Z,95612.19
2023-02-27T14:07:18.246Z,95593.66
2023-02-27T14:08:23.456Z,95603.22
2023-02-27T14:09:26.474Z,95573.59
2023-02-27T14:10:31.017Z,95600.22
2023-02-27T14:11:34.265Z,95556.53
2023-02-27T14:12:44.537Z,95608.34
2023-02-27T14:13:50.543Z,95633.53
2023-02-27T14:14:52.696Z,95627.56
2023-02-27T14:15:57.373Z,95522.63
2023-02-27T14:17:00.516Z,95614.25
2023-02-27T14:18:17.846Z,95525.44